sensor_id;sensor_type;location;lat;lon;timestamp;temperature;humidity
12123;DHT22;6125;59.628;17.852;2023-08-06T00:02:12;15.20;99.90
12123;DHT22;6125;59.628;17.852;2023-08-06T00:04:39;15.20;99.90
12123;DHT22;6125;59.628;17.852;2023-08-06T00:07:06;15.20;99.90
12123;DHT22;6125;59.628;17.852;2023-08-06T00:09:33;15.20;99.90
12123;DHT22;6125;59.628;17.852;2023-08-06T00:12:00;15.20;99.90
12123;DHT22;6125;59.628;17.852;2023-08-06T00:14:27;15.20;99.90
12123;DHT22;6125;59.628;17.852;2023-08-06T00:16:55;15.10;99.90
12123;DHT22;6125;59.628;17.852;2023-08-06T00:19:22;15.10;99.90
12123;DHT22;6125;59.628;17.852;2023-08-06T00:21:49;15.10;99.90
12123;DHT22;6125;59.628;17.852;2023-08-06T00:24:16;15.00;99.90
12123;DHT22;6125;59.628;17.852;2023-08-06T00:26:43;15.00;99.90
12123;DHT22;6125;59.628;17.852;2023-08-06T00:29:10;14.90;99.90
12123;DHT22;6125;59.628;17.852;2023-08-06T00:31:37;14.90;99.90
12123;DHT22;6125;59.628;17.852;2023-08-06T00:34:06;14.80;99.90
12123;DHT22;6125;59.628;17.852;2023-08-06T00:36:33;14.80;99.90
12123;DHT22;6125;59.628;17.852;2023-08-06T00:39:00;14.70;99.90
12123;DHT22;6125;59.628;17.852;2023-08-06T00:41:27;14.70;99.90
12123;DHT22;6125;59.628;17.852;2023-08-06T00:43:54;14.70;99.90
12123;DHT22;6125;59.628;17.852;2023-08-06T00:46:21;14.70;99.90
12123;DHT22;6125;59.628;17.852;2023-08-06T00:48:49;14.50;99.90
12123;DHT22;6125;59.628;17.852;2023-08-06T00:51:19;14.50;99.90
12123;DHT22;6125;59.628;17.852;2023-08-06T00:53:47;14.40;99.90
12123;DHT22;6125;59.628;17.852;2023-08-06T00:56:15;14.30;99.90
12123;DHT22;6125;59.628;17.852;2023-08-06T00:58:42;14.30;99.90
12123;DHT22;6125;59.628;17.852;2023-08-06T01:01:09;14.20;99.90
12123;DHT22;6125;59.628;17.852;2023-08-06T01:03:36;14.20;99.90
12123;DHT22;6125;59.628;17.852;2023-08-06T01:06:03;14.20;99.90
12123;DHT22;6125;59.628;17.852;2023-08-06T01:08:41;14.10;99.90
12123;DHT22;6125;59.628;17.852;2023-08-06T01:11:20;14.20;99.90
12123;DHT22;6125;59.628;17.852;2023-08-06T01:13:54;14.10;99.90
12123;DHT22;6125;59.628;17.852;2023-08-06T01:16:25;14.00;99.90
12123;DHT22;6125;59.628;17.852;2023-08-06T01:18:52;14.00;99.90
12123;DHT22;6125;59.628;17.852;2023-08-06T01:21:21;14.00;99.90
12123;DHT22;6125;59.628;17.852;2023-08-06T01:23:48;14.00;99.90
12123;DHT22;6125;59.628;17.852;2023-08-06T01:26:19;13.90;99.90
12123;DHT22;6125;59.628;17.852;2023-08-06T01:28:56;13.90;99.90
12123;DHT22;6125;59.628;17.852;2023-08-06T01:31:31;13.90;99.90
12123;DHT22;6125;59.628;17.852;2023-08-06T01:33:59;13.80;99.90
12123;DHT22;6125;59.628;17.852;2023-08-06T01:36:30;13.70;99.90
12123;DHT22;6125;59.628;17.852;2023-08-06T01:38:57;13.70;99.90
12123;DHT22;6125;59.628;17.852;2023-08-06T01:41:24;13.60;99.90
12123;DHT22;6125;59.628;17.852;2023-08-06T01:43:51;13.60;99.90
12123;DHT22;6125;59.628;17.852;2023-08-06T01:46:18;13.60;99.90
12123;DHT22;6125;59.628;17.852;2023-08-06T01:48:45;13.60;99.90
12123;DHT22;6125;59.628;17.852;2023-08-06T01:51:12;13.50;99.90
12123;DHT22;6125;59.628;17.852;2023-08-06T01:53:41;13.50;99.90
12123;DHT22;6125;59.628;17.852;2023-08-06T01:56:08;13.50;99.90
12123;DHT22;6125;59.628;17.852;2023-08-06T01:58:35;13.40;99.90
12123;DHT22;6125;59.628;17.852;2023-08-06T02:01:02;13.40;99.90
12123;DHT22;6125;59.628;17.852;2023-08-06T02:03:29;13.40;99.90
12123;DHT22;6125;59.628;17.852;2023-08-06T02:05:56;13.40;99.90
12123;DHT22;6125;59.628;17.852;2023-08-06T02:08:24;13.30;99.90
12123;DHT22;6125;59.628;17.852;2023-08-06T02:10:52;13.30;99.90
12123;DHT22;6125;59.628;17.852;2023-08-06T02:13:19;13.30;99.90
12123;DHT22;6125;59.628;17.852;2023-08-06T02:15:46;13.30;99.90
12123;DHT22;6125;59.628;17.852;2023-08-06T02:18:14;13.20;99.90
12123;DHT22;6125;59.628;17.852;2023-08-06T02:20:41;13.20;99.90
12123;DHT22;6125;59.628;17.852;2023-08-06T02:23:08;13.20;99.90
12123;DHT22;6125;59.628;17.852;2023-08-06T02:25:35;13.20;99.90
12123;DHT22;6125;59.628;17.852;2023-08-06T02:28:04;13.10;99.90
12123;DHT22;6125;59.628;17.852;2023-08-06T02:30:31;13.10;99.90
12123;DHT22;6125;59.628;17.852;2023-08-06T02:32:58;13.10;99.90
12123;DHT22;6125;59.628;17.852;2023-08-06T02:35:25;13.00;99.90
12123;DHT22;6125;59.628;17.852;2023-08-06T02:37:52;13.00;99.90
12123;DHT22;6125;59.628;17.852;2023-08-06T02:40:19;13.00;99.90
12123;DHT22;6125;59.628;17.852;2023-08-06T02:42:46;13.00;99.90
12123;DHT22;6125;59.628;17.852;2023-08-06T02:45:15;12.90;99.90
12123;DHT22;6125;59.628;17.852;2023-08-06T02:47:42;12.90;99.90
12123;DHT22;6125;59.628;17.852;2023-08-06T02:50:09;12.80;99.90
12123;DHT22;6125;59.628;17.852;2023-08-06T02:52:36;12.70;99.90
12123;DHT22;6125;59.628;17.852;2023-08-06T02:55:05;12.70;99.90
12123;DHT22;6125;59.628;17.852;2023-08-06T02:57:32;12.60;99.90
12123;DHT22;6125;59.628;17.852;2023-08-06T02:59:59;12.60;99.90
12123;DHT22;6125;59.628;17.852;2023-08-06T03:02:27;12.60;99.90
12123;DHT22;6125;59.628;17.852;2023-08-06T03:04:54;12.60;99.90
12123;DHT22;6125;59.628;17.852;2023-08-06T03:07:21;12.60;99.90
12123;DHT22;6125;59.628;17.852;2023-08-06T03:09:49;12.60;99.90
12123;DHT22;6125;59.628;17.852;2023-08-06T03:12:16;12.70;99.90
12123;DHT22;6125;59.628;17.852;2023-08-06T03:14:43;12.70;99.90
12123;DHT22;6125;59.628;17.852;2023-08-06T03:17:10;12.70;99.90
12123;DHT22;6125;59.628;17.852;2023-08-06T03:19:38;12.80;99.90
12123;DHT22;6125;59.628;17.852;2023-08-06T03:22:05;12.80;99.90
12123;DHT22;6125;59.628;17.852;2023-08-06T03:24:33;12.80;99.90
12123;DHT22;6125;59.628;17.852;2023-08-06T03:27:00;12.80;99.90
12123;DHT22;6125;59.628;17.852;2023-08-06T03:29:27;12.90;99.90
12123;DHT22;6125;59.628;17.852;2023-08-06T03:31:54;12.90;99.90
12123;DHT22;6125;59.628;17.852;2023-08-06T03:34:21;12.90;99.90
12123;DHT22;6125;59.628;17.852;2023-08-06T03:36:49;13.00;99.90
12123;DHT22;6125;59.628;17.852;2023-08-06T03:39:16;13.00;99.90
12123;DHT22;6125;59.628;17.852;2023-08-06T03:41:43;13.00;99.90
12123;DHT22;6125;59.628;17.852;2023-08-06T03:44:10;13.00;99.90
12123;DHT22;6125;59.628;17.852;2023-08-06T03:46:38;13.00;99.90
12123;DHT22;6125;59.628;17.852;2023-08-06T03:49:05;13.00;99.90
12123;DHT22;6125;59.628;17.852;2023-08-06T03:51:32;13.10;99.90
12123;DHT22;6125;59.628;17.852;2023-08-06T03:54:00;13.10;99.90
12123;DHT22;6125;59.628;17.852;2023-08-06T03:56:27;13.10;99.90
12123;DHT22;6125;59.628;17.852;2023-08-06T03:58:54;13.10;99.90
12123;DHT22;6125;59.628;17.852;2023-08-06T04:01:21;13.20;99.90
12123;DHT22;6125;59.628;17.852;2023-08-06T04:03:48;13.30;99.90
12123;DHT22;6125;59.628;17.852;2023-08-06T04:06:15;13.40;99.90
12123;DHT22;6125;59.628;17.852;2023-08-06T04:08:42;13.40;99.90
12123;DHT22;6125;59.628;17.852;2023-08-06T04:11:11;13.50;99.90
12123;DHT22;6125;59.628;17.852;2023-08-06T04:13:41;13.60;99.90
12123;DHT22;6125;59.628;17.852;2023-08-06T04:16:08;13.80;99.90
12123;DHT22;6125;59.628;17.852;2023-08-06T04:18:35;13.90;99.90
12123;DHT22;6125;59.628;17.852;2023-08-06T04:21:03;14.00;99.90
12123;DHT22;6125;59.628;17.852;2023-08-06T04:23:30;14.10;99.90
12123;DHT22;6125;59.628;17.852;2023-08-06T04:25:57;14.10;99.90
12123;DHT22;6125;59.628;17.852;2023-08-06T04:28:25;14.30;99.90
12123;DHT22;6125;59.628;17.852;2023-08-06T04:30:52;14.30;99.90
12123;DHT22;6125;59.628;17.852;2023-08-06T04:33:20;14.50;99.90
12123;DHT22;6125;59.628;17.852;2023-08-06T04:35:47;14.50;99.90
12123;DHT22;6125;59.628;17.852;2023-08-06T04:38:14;14.70;99.90
12123;DHT22;6125;59.628;17.852;2023-08-06T04:40:41;14.70;99.90
12123;DHT22;6125;59.628;17.852;2023-08-06T04:43:08;14.80;99.90
12123;DHT22;6125;59.628;17.852;2023-08-06T04:45:37;14.90;99.90
12123;DHT22;6125;59.628;17.852;2023-08-06T04:48:04;15.00;99.90
12123;DHT22;6125;59.628;17.852;2023-08-06T04:50:31;15.10;99.90
12123;DHT22;6125;59.628;17.852;2023-08-06T04:52:58;15.20;99.90
12123;DHT22;6125;59.628;17.852;2023-08-06T04:55:25;15.20;99.90
12123;DHT22;6125;59.628;17.852;2023-08-06T04:57:52;15.30;99.90
12123;DHT22;6125;59.628;17.852;2023-08-06T05:00:19;15.30;99.90
12123;DHT22;6125;59.628;17.852;2023-08-06T05:02:47;15.30;99.90
12123;DHT22;6125;59.628;17.852;2023-08-06T05:05:15;15.30;99.90
12123;DHT22;6125;59.628;17.852;2023-08-06T05:07:42;15.40;99.90
12123;DHT22;6125;59.628;17.852;2023-08-06T05:10:09;15.50;99.90
12123;DHT22;6125;59.628;17.852;2023-08-06T05:12:43;15.50;99.90
12123;DHT22;6125;59.628;17.852;2023-08-06T05:15:10;15.60;99.90
12123;DHT22;6125;59.628;17.852;2023-08-06T05:17:37;15.70;99.90
12123;DHT22;6125;59.628;17.852;2023-08-06T05:20:07;15.70;99.90
12123;DHT22;6125;59.628;17.852;2023-08-06T05:22:34;15.80;99.90
12123;DHT22;6125;59.628;17.852;2023-08-06T05:25:01;15.90;99.90
12123;DHT22;6125;59.628;17.852;2023-08-06T05:27:28;16.00;99.90
12123;DHT22;6125;59.628;17.852;2023-08-06T05:29:55;16.10;99.90
12123;DHT22;6125;59.628;17.852;2023-08-06T05:32:22;16.20;99.90
12123;DHT22;6125;59.628;17.852;2023-08-06T05:34:50;16.30;99.90
12123;DHT22;6125;59.628;17.852;2023-08-06T05:37:18;16.40;99.90
12123;DHT22;6125;59.628;17.852;2023-08-06T05:39:45;16.50;99.90
12123;DHT22;6125;59.628;17.852;2023-08-06T05:42:12;16.50;99.90
12123;DHT22;6125;59.628;17.852;2023-08-06T05:44:39;16.60;99.90
12123;DHT22;6125;59.628;17.852;2023-08-06T05:47:06;16.60;99.90
12123;DHT22;6125;59.628;17.852;2023-08-06T05:49:33;16.70;99.90
12123;DHT22;6125;59.628;17.852;2023-08-06T05:52:00;16.80;99.90
12123;DHT22;6125;59.628;17.852;2023-08-06T05:54:29;16.90;99.90
12123;DHT22;6125;59.628;17.852;2023-08-06T05:56:56;17.00;99.90
12123;DHT22;6125;59.628;17.852;2023-08-06T05:59:23;17.00;99.90
12123;DHT22;6125;59.628;17.852;2023-08-06T06:01:50;17.00;99.90
12123;DHT22;6125;59.628;17.852;2023-08-06T06:04:17;17.00;99.90
12123;DHT22;6125;59.628;17.852;2023-08-06T06:06:44;17.10;99.90
12123;DHT22;6125;59.628;17.852;2023-08-06T06:09:11;17.30;99.90
12123;DHT22;6125;59.628;17.852;2023-08-06T06:11:40;17.30;99.90
12123;DHT22;6125;59.628;17.852;2023-08-06T06:14:07;17.30;99.90
12123;DHT22;6125;59.628;17.852;2023-08-06T06:16:34;17.40;99.90
12123;DHT22;6125;59.628;17.852;2023-08-06T06:19:01;17.50;99.90
12123;DHT22;6125;59.628;17.852;2023-08-06T06:21:28;17.50;99.90
12123;DHT22;6125;59.628;17.852;2023-08-06T06:23:55;17.50;99.90
12123;DHT22;6125;59.628;17.852;2023-08-06T06:26:22;17.60;99.90
12123;DHT22;6125;59.628;17.852;2023-08-06T06:28:51;17.80;99.90
12123;DHT22;6125;59.628;17.852;2023-08-06T06:31:18;17.80;99.90
12123;DHT22;6125;59.628;17.852;2023-08-06T06:33:45;17.90;99.90
12123;DHT22;6125;59.628;17.852;2023-08-06T06:36:12;18.00;99.90
12123;DHT22;6125;59.628;17.852;2023-08-06T06:38:39;18.20;99.90
12123;DHT22;6125;59.628;17.852;2023-08-06T06:41:06;18.20;99.90
12123;DHT22;6125;59.628;17.852;2023-08-06T06:43:33;18.30;99.90
12123;DHT22;6125;59.628;17.852;2023-08-06T06:46:02;18.40;99.90
12123;DHT22;6125;59.628;17.852;2023-08-06T06:48:32;18.50;99.90
12123;DHT22;6125;59.628;17.852;2023-08-06T06:51:00;18.60;99.90
12123;DHT22;6125;59.628;17.852;2023-08-06T06:53:27;18.70;99.90
12123;DHT22;6125;59.628;17.852;2023-08-06T06:55:54;18.80;99.90
12123;DHT22;6125;59.628;17.852;2023-08-06T06:58:21;19.00;99.90
12123;DHT22;6125;59.628;17.852;2023-08-06T07:00:48;19.10;99.90
12123;DHT22;6125;59.628;17.852;2023-08-06T07:03:17;19.30;99.90
12123;DHT22;6125;59.628;17.852;2023-08-06T07:05:58;19.30;99.90
12123;DHT22;6125;59.628;17.852;2023-08-06T07:08:25;19.40;99.90
12123;DHT22;6125;59.628;17.852;2023-08-06T07:10:59;19.50;99.90
12123;DHT22;6125;59.628;17.852;2023-08-06T07:13:27;19.50;99.90
12123;DHT22;6125;59.628;17.852;2023-08-06T07:15:54;19.60;99.90
12123;DHT22;6125;59.628;17.852;2023-08-06T07:18:24;19.60;99.90
12123;DHT22;6125;59.628;17.852;2023-08-06T07:20:51;19.80;99.90
12123;DHT22;6125;59.628;17.852;2023-08-06T07:23:19;20.00;99.90
12123;DHT22;6125;59.628;17.852;2023-08-06T07:25:47;20.20;99.90
12123;DHT22;6125;59.628;17.852;2023-08-06T07:28:14;20.40;99.90
12123;DHT22;6125;59.628;17.852;2023-08-06T07:30:42;20.40;99.90
12123;DHT22;6125;59.628;17.852;2023-08-06T07:33:10;20.60;99.90
12123;DHT22;6125;59.628;17.852;2023-08-06T07:35:38;20.70;99.90
12123;DHT22;6125;59.628;17.852;2023-08-06T07:38:05;20.80;99.90
12123;DHT22;6125;59.628;17.852;2023-08-06T07:40:32;21.00;99.90
12123;DHT22;6125;59.628;17.852;2023-08-06T07:43:02;21.10;99.90
12123;DHT22;6125;59.628;17.852;2023-08-06T07:45:33;21.10;99.90
12123;DHT22;6125;59.628;17.852;2023-08-06T07:48:00;21.20;99.90
12123;DHT22;6125;59.628;17.852;2023-08-06T07:50:27;21.20;99.90
12123;DHT22;6125;59.628;17.852;2023-08-06T07:52:56;21.30;99.90
12123;DHT22;6125;59.628;17.852;2023-08-06T07:55:23;21.40;99.90
12123;DHT22;6125;59.628;17.852;2023-08-06T07:57:50;21.40;99.90
12123;DHT22;6125;59.628;17.852;2023-08-06T08:00:17;21.50;99.90
12123;DHT22;6125;59.628;17.852;2023-08-06T08:02:44;21.40;99.90
12123;DHT22;6125;59.628;17.852;2023-08-06T08:05:11;21.30;99.90
12123;DHT22;6125;59.628;17.852;2023-08-06T08:07:39;21.30;99.90
12123;DHT22;6125;59.628;17.852;2023-08-06T08:10:08;21.30;99.90
12123;DHT22;6125;59.628;17.852;2023-08-06T08:12:35;21.40;99.90
12123;DHT22;6125;59.628;17.852;2023-08-06T08:15:02;21.50;99.90
12123;DHT22;6125;59.628;17.852;2023-08-06T08:17:29;21.60;99.90
12123;DHT22;6125;59.628;17.852;2023-08-06T08:19:56;21.70;99.90
12123;DHT22;6125;59.628;17.852;2023-08-06T08:22:23;21.80;99.90
12123;DHT22;6125;59.628;17.852;2023-08-06T08:24:50;21.70;99.90
12123;DHT22;6125;59.628;17.852;2023-08-06T08:27:19;21.70;99.90
12123;DHT22;6125;59.628;17.852;2023-08-06T08:29:46;21.70;99.90
12123;DHT22;6125;59.628;17.852;2023-08-06T08:32:13;21.80;99.90
12123;DHT22;6125;59.628;17.852;2023-08-06T08:34:40;21.80;99.90
12123;DHT22;6125;59.628;17.852;2023-08-06T08:37:07;21.90;99.90
12123;DHT22;6125;59.628;17.852;2023-08-06T08:39:34;22.00;99.90
12123;DHT22;6125;59.628;17.852;2023-08-06T08:42:01;22.20;99.90
12123;DHT22;6125;59.628;17.852;2023-08-06T08:44:31;22.30;99.90
12123;DHT22;6125;59.628;17.852;2023-08-06T08:46:59;22.30;99.90
12123;DHT22;6125;59.628;17.852;2023-08-06T08:49:26;22.30;99.90
12123;DHT22;6125;59.628;17.852;2023-08-06T08:51:54;22.30;99.90
12123;DHT22;6125;59.628;17.852;2023-08-06T08:54:23;22.20;99.90
12123;DHT22;6125;59.628;17.852;2023-08-06T08:56:50;22.10;99.90
12123;DHT22;6125;59.628;17.852;2023-08-06T08:59:17;22.00;99.90
12123;DHT22;6125;59.628;17.852;2023-08-06T09:01:48;21.90;99.90
12123;DHT22;6125;59.628;17.852;2023-08-06T09:04:17;21.80;99.90
12123;DHT22;6125;59.628;17.852;2023-08-06T09:06:46;21.90;99.90
12123;DHT22;6125;59.628;17.852;2023-08-06T09:09:23;21.90;99.90
12123;DHT22;6125;59.628;17.852;2023-08-06T09:11:52;22.00;99.90
12123;DHT22;6125;59.628;17.852;2023-08-06T09:14:21;22.10;99.90
12123;DHT22;6125;59.628;17.852;2023-08-06T09:16:49;22.20;99.90
12123;DHT22;6125;59.628;17.852;2023-08-06T09:19:17;22.30;99.90
12123;DHT22;6125;59.628;17.852;2023-08-06T09:21:45;22.30;99.90
12123;DHT22;6125;59.628;17.852;2023-08-06T09:24:14;22.30;99.90
12123;DHT22;6125;59.628;17.852;2023-08-06T09:26:45;22.40;99.90
12123;DHT22;6125;59.628;17.852;2023-08-06T09:29:12;22.60;99.90
12123;DHT22;6125;59.628;17.852;2023-08-06T09:31:41;22.60;99.90
12123;DHT22;6125;59.628;17.852;2023-08-06T09:34:14;22.70;99.90
12123;DHT22;6125;59.628;17.852;2023-08-06T09:36:42;22.70;99.90
12123;DHT22;6125;59.628;17.852;2023-08-06T09:39:13;22.70;99.90
12123;DHT22;6125;59.628;17.852;2023-08-06T09:41:40;22.70;99.90
12123;DHT22;6125;59.628;17.852;2023-08-06T09:44:17;22.70;99.90
12123;DHT22;6125;59.628;17.852;2023-08-06T09:46:47;22.70;99.90
12123;DHT22;6125;59.628;17.852;2023-08-06T09:49:17;22.70;99.90
12123;DHT22;6125;59.628;17.852;2023-08-06T09:51:45;22.70;99.90
12123;DHT22;6125;59.628;17.852;2023-08-06T09:54:15;22.70;99.90
12123;DHT22;6125;59.628;17.852;2023-08-06T09:56:43;22.70;99.90
12123;DHT22;6125;59.628;17.852;2023-08-06T09:59:10;22.80;99.90
12123;DHT22;6125;59.628;17.852;2023-08-06T10:01:37;22.70;99.90
12123;DHT22;6125;59.628;17.852;2023-08-06T10:04:06;22.60;99.90
12123;DHT22;6125;59.628;17.852;2023-08-06T10:06:35;22.50;99.90
12123;DHT22;6125;59.628;17.852;2023-08-06T10:09:02;22.30;99.90
12123;DHT22;6125;59.628;17.852;2023-08-06T10:11:30;22.20;99.90
12123;DHT22;6125;59.628;17.852;2023-08-06T10:14:04;22.10;99.90
12123;DHT22;6125;59.628;17.852;2023-08-06T10:16:33;22.00;99.90
12123;DHT22;6125;59.628;17.852;2023-08-06T10:19:01;21.90;99.90
12123;DHT22;6125;59.628;17.852;2023-08-06T10:21:30;21.80;99.90
12123;DHT22;6125;59.628;17.852;2023-08-06T10:23:59;21.80;99.90
12123;DHT22;6125;59.628;17.852;2023-08-06T10:26:27;21.80;99.90
12123;DHT22;6125;59.628;17.852;2023-08-06T10:28:55;21.90;99.90
12123;DHT22;6125;59.628;17.852;2023-08-06T10:31:58;21.80;99.90
12123;DHT22;6125;59.628;17.852;2023-08-06T10:34:58;21.80;99.90
12123;DHT22;6125;59.628;17.852;2023-08-06T10:37:35;21.80;99.90
12123;DHT22;6125;59.628;17.852;2023-08-06T10:40:07;21.90;99.90
12123;DHT22;6125;59.628;17.852;2023-08-06T10:42:34;21.80;99.90
12123;DHT22;6125;59.628;17.852;2023-08-06T10:45:15;21.70;99.90
12123;DHT22;6125;59.628;17.852;2023-08-06T10:47:42;21.50;99.90
12123;DHT22;6125;59.628;17.852;2023-08-06T10:50:12;21.30;99.90
12123;DHT22;6125;59.628;17.852;2023-08-06T10:52:39;21.20;99.90
12123;DHT22;6125;59.628;17.852;2023-08-06T10:55:08;21.20;99.90
12123;DHT22;6125;59.628;17.852;2023-08-06T10:57:36;21.10;99.90
12123;DHT22;6125;59.628;17.852;2023-08-06T11:00:04;20.60;99.90
12123;DHT22;6125;59.628;17.852;2023-08-06T11:02:33;20.30;99.90
12123;DHT22;6125;59.628;17.852;2023-08-06T11:05:06;20.10;99.90
12123;DHT22;6125;59.628;17.852;2023-08-06T11:07:33;19.90;99.90
12123;DHT22;6125;59.628;17.852;2023-08-06T11:10:05;19.60;99.90
12123;DHT22;6125;59.628;17.852;2023-08-06T11:12:35;19.50;99.90
12123;DHT22;6125;59.628;17.852;2023-08-06T11:15:03;19.50;99.90
12123;DHT22;6125;59.628;17.852;2023-08-06T11:17:33;19.50;99.90
12123;DHT22;6125;59.628;17.852;2023-08-06T11:20:01;19.60;99.90
12123;DHT22;6125;59.628;17.852;2023-08-06T11:22:28;19.60;99.90
12123;DHT22;6125;59.628;17.852;2023-08-06T11:24:56;19.60;99.90
12123;DHT22;6125;59.628;17.852;2023-08-06T11:27:26;19.60;99.90
12123;DHT22;6125;59.628;17.852;2023-08-06T11:29:56;19.70;99.90
12123;DHT22;6125;59.628;17.852;2023-08-06T11:32:23;19.80;99.90
12123;DHT22;6125;59.628;17.852;2023-08-06T11:34:50;19.90;99.90
12123;DHT22;6125;59.628;17.852;2023-08-06T11:37:21;19.80;99.90
12123;DHT22;6125;59.628;17.852;2023-08-06T11:39:50;19.70;99.90
12123;DHT22;6125;59.628;17.852;2023-08-06T11:42:17;19.60;99.90
12123;DHT22;6125;59.628;17.852;2023-08-06T11:44:44;19.60;99.90
12123;DHT22;6125;59.628;17.852;2023-08-06T11:47:17;19.60;99.90
12123;DHT22;6125;59.628;17.852;2023-08-06T11:49:46;19.60;99.90
12123;DHT22;6125;59.628;17.852;2023-08-06T11:52:15;19.60;99.90
12123;DHT22;6125;59.628;17.852;2023-08-06T11:54:45;19.50;99.90
12123;DHT22;6125;59.628;17.852;2023-08-06T11:57:12;19.40;99.90
12123;DHT22;6125;59.628;17.852;2023-08-06T11:59:39;19.30;99.90
12123;DHT22;6125;59.628;17.852;2023-08-06T12:02:09;19.00;99.90
12123;DHT22;6125;59.628;17.852;2023-08-06T12:05:00;18.80;99.90
12123;DHT22;6125;59.628;17.852;2023-08-06T12:07:29;18.60;99.90
12123;DHT22;6125;59.628;17.852;2023-08-06T12:09:57;18.50;99.90
12123;DHT22;6125;59.628;17.852;2023-08-06T12:12:24;18.50;99.90
12123;DHT22;6125;59.628;17.852;2023-08-06T12:14:51;18.50;99.90
12123;DHT22;6125;59.628;17.852;2023-08-06T12:17:18;18.40;99.90
12123;DHT22;6125;59.628;17.852;2023-08-06T12:19:45;18.30;99.90
12123;DHT22;6125;59.628;17.852;2023-08-06T12:22:15;18.20;99.90
12123;DHT22;6125;59.628;17.852;2023-08-06T12:24:43;18.10;99.90
12123;DHT22;6125;59.628;17.852;2023-08-06T12:27:10;18.10;99.90
12123;DHT22;6125;59.628;17.852;2023-08-06T12:29:40;18.00;99.90
12123;DHT22;6125;59.628;17.852;2023-08-06T12:32:08;17.80;99.90
12123;DHT22;6125;59.628;17.852;2023-08-06T12:34:35;17.70;99.90
12123;DHT22;6125;59.628;17.852;2023-08-06T12:37:02;17.60;99.90
12123;DHT22;6125;59.628;17.852;2023-08-06T12:39:31;17.60;99.90
12123;DHT22;6125;59.628;17.852;2023-08-06T12:41:59;17.50;99.90
12123;DHT22;6125;59.628;17.852;2023-08-06T12:44:26;17.40;99.90
12123;DHT22;6125;59.628;17.852;2023-08-06T12:46:53;17.30;99.90
12123;DHT22;6125;59.628;17.852;2023-08-06T12:49:20;17.30;99.90
12123;DHT22;6125;59.628;17.852;2023-08-06T12:51:48;17.20;99.90
12123;DHT22;6125;59.628;17.852;2023-08-06T12:54:16;17.10;99.90
12123;DHT22;6125;59.628;17.852;2023-08-06T12:56:46;17.00;99.90
12123;DHT22;6125;59.628;17.852;2023-08-06T12:59:14;17.00;99.90
12123;DHT22;6125;59.628;17.852;2023-08-06T13:01:42;16.90;99.90
12123;DHT22;6125;59.628;17.852;2023-08-06T13:04:09;16.90;99.90
12123;DHT22;6125;59.628;17.852;2023-08-06T13:06:36;16.80;99.90
12123;DHT22;6125;59.628;17.852;2023-08-06T13:09:04;16.80;99.90
12123;DHT22;6125;59.628;17.852;2023-08-06T13:11:32;16.80;99.90
12123;DHT22;6125;59.628;17.852;2023-08-06T13:14:04;16.80;99.90
12123;DHT22;6125;59.628;17.852;2023-08-06T13:16:32;16.80;99.90
12123;DHT22;6125;59.628;17.852;2023-08-06T13:18:59;16.90;99.90
12123;DHT22;6125;59.628;17.852;2023-08-06T13:21:34;16.80;99.90
12123;DHT22;6125;59.628;17.852;2023-08-06T13:24:02;16.90;99.90
12123;DHT22;6125;59.628;17.852;2023-08-06T13:26:30;16.90;99.90
12123;DHT22;6125;59.628;17.852;2023-08-06T13:28:57;16.90;99.90
12123;DHT22;6125;59.628;17.852;2023-08-06T13:31:26;16.90;99.90
12123;DHT22;6125;59.628;17.852;2023-08-06T13:33:54;16.90;99.90
12123;DHT22;6125;59.628;17.852;2023-08-06T13:36:23;16.80;99.90
12123;DHT22;6125;59.628;17.852;2023-08-06T13:38:50;16.70;99.90
12123;DHT22;6125;59.628;17.852;2023-08-06T13:41:17;16.70;99.90
12123;DHT22;6125;59.628;17.852;2023-08-06T13:43:45;16.60;99.90
12123;DHT22;6125;59.628;17.852;2023-08-06T13:46:12;16.60;99.90
12123;DHT22;6125;59.628;17.852;2023-08-06T13:48:43;16.50;99.90
12123;DHT22;6125;59.628;17.852;2023-08-06T13:51:11;16.50;99.90
12123;DHT22;6125;59.628;17.852;2023-08-06T13:53:38;16.40;99.90
12123;DHT22;6125;59.628;17.852;2023-08-06T13:56:05;16.50;99.90
12123;DHT22;6125;59.628;17.852;2023-08-06T13:58:33;16.50;99.90
12123;DHT22;6125;59.628;17.852;2023-08-06T14:01:00;16.40;99.90
12123;DHT22;6125;59.628;17.852;2023-08-06T14:03:27;16.40;99.90
12123;DHT22;6125;59.628;17.852;2023-08-06T14:05:56;16.40;99.90
12123;DHT22;6125;59.628;17.852;2023-08-06T14:08:23;16.40;99.90
12123;DHT22;6125;59.628;17.852;2023-08-06T14:10:50;16.40;99.90
12123;DHT22;6125;59.628;17.852;2023-08-06T14:13:17;16.40;99.90
12123;DHT22;6125;59.628;17.852;2023-08-06T14:15:44;16.40;99.90
12123;DHT22;6125;59.628;17.852;2023-08-06T14:18:13;16.30;99.90
12123;DHT22;6125;59.628;17.852;2023-08-06T14:20:40;16.30;99.90
12123;DHT22;6125;59.628;17.852;2023-08-06T14:23:09;16.20;99.90
12123;DHT22;6125;59.628;17.852;2023-08-06T14:25:36;16.10;99.90
12123;DHT22;6125;59.628;17.852;2023-08-06T14:28:04;16.10;99.90
12123;DHT22;6125;59.628;17.852;2023-08-06T14:30:32;16.00;99.90
12123;DHT22;6125;59.628;17.852;2023-08-06T14:32:59;16.00;99.90
12123;DHT22;6125;59.628;17.852;2023-08-06T14:35:27;16.00;99.90
12123;DHT22;6125;59.628;17.852;2023-08-06T14:37:55;16.00;99.90
12123;DHT22;6125;59.628;17.852;2023-08-06T14:40:23;16.00;99.90
12123;DHT22;6125;59.628;17.852;2023-08-06T14:42:52;16.00;99.90
12123;DHT22;6125;59.628;17.852;2023-08-06T14:45:19;16.00;99.90
12123;DHT22;6125;59.628;17.852;2023-08-06T14:47:46;16.00;99.90
12123;DHT22;6125;59.628;17.852;2023-08-06T14:50:13;16.00;99.90
12123;DHT22;6125;59.628;17.852;2023-08-06T14:52:40;16.00;99.90
12123;DHT22;6125;59.628;17.852;2023-08-06T14:55:07;16.00;99.90
12123;DHT22;6125;59.628;17.852;2023-08-06T14:57:36;16.00;99.90
12123;DHT22;6125;59.628;17.852;2023-08-06T15:00:04;16.00;99.90
12123;DHT22;6125;59.628;17.852;2023-08-06T15:02:32;16.00;99.90
12123;DHT22;6125;59.628;17.852;2023-08-06T15:04:59;16.00;99.90
12123;DHT22;6125;59.628;17.852;2023-08-06T15:07:26;16.10;99.90
12123;DHT22;6125;59.628;17.852;2023-08-06T15:09:54;16.10;99.90
12123;DHT22;6125;59.628;17.852;2023-08-06T15:12:21;16.10;99.90
12123;DHT22;6125;59.628;17.852;2023-08-06T15:14:50;16.20;99.90
12123;DHT22;6125;59.628;17.852;2023-08-06T15:17:17;16.20;99.90
12123;DHT22;6125;59.628;17.852;2023-08-06T15:19:44;16.20;99.90
12123;DHT22;6125;59.628;17.852;2023-08-06T15:22:11;16.20;99.90
12123;DHT22;6125;59.628;17.852;2023-08-06T15:24:38;16.20;99.90
12123;DHT22;6125;59.628;17.852;2023-08-06T15:27:08;16.20;99.90
12123;DHT22;6125;59.628;17.852;2023-08-06T15:29:35;16.20;99.90
12123;DHT22;6125;59.628;17.852;2023-08-06T15:32:04;16.20;99.90
12123;DHT22;6125;59.628;17.852;2023-08-06T15:34:31;16.20;99.90
12123;DHT22;6125;59.628;17.852;2023-08-06T15:36:58;16.20;99.90